Time;durP1;ratioP1;P1;durP2;ratioP2;P2;SDS_P1;SDS_P2;PMS_P1;PMS_P2;Temp;Humidity;BMP_temperature;BMP_pressure;BME280_temperature;BME280_humidity;BME280_pressure;Samples;Min_cycle;Max_cycle;Signal;HPM_P1;HPM_P2
2023/04/10 00:00:24;;;;;;;15.63;8.47;;;;;;;7.82;87.28;95290.88;4984734;28;20238;-76
2023/04/10 00:02:50;;;;;;;15.60;8.53;;;;;;;7.87;87.57;95282.53;5000534;28;20234;-76
2023/04/10 00:05:15;;;;;;;14.33;8.53;;;;;;;7.71;87.35;95283.47;4992588;28;20736;-76
2023/04/10 00:07:41;;;;;;;14.00;8.33;;;;;;;7.92;87.30;95280.22;4988920;28;20241;-76
2023/04/10 00:10:06;;;;;;;13.53;7.90;;;;;;;7.85;86.56;95277.53;4980287;28;20239;-75
2023/04/10 00:12:32;;;;;;;13.90;8.57;;;;;;;7.74;86.72;95277.91;4986654;28;20226;-76
2023/04/10 00:14:58;;;;;;;13.10;7.90;;;;;;;7.66;86.81;95275.38;4999573;28;20309;-75
2023/04/10 00:17:23;;;;;;;15.70;8.37;;;;;;;7.78;86.01;95274.00;4996137;28;20218;-75
2023/04/10 00:19:49;;;;;;;13.60;8.13;;;;;;;7.73;85.64;95271.09;4980714;28;20234;-75
2023/04/10 00:22:14;;;;;;;13.80;7.67;;;;;;;7.68;85.91;95272.59;4987916;28;20227;-75
2023/04/10 00:24:40;;;;;;;12.20;7.80;;;;;;;7.76;84.53;95265.50;4986821;28;20293;-76
2023/04/10 00:27:05;;;;;;;12.50;7.43;;;;;;;7.79;83.49;95265.16;4986052;28;20230;-75
2023/04/10 00:29:31;;;;;;;12.20;6.93;;;;;;;7.81;80.65;95270.22;5021603;28;20711;-76
2023/04/10 00:31:56;;;;;;;11.43;7.07;;;;;;;7.90;80.52;95259.56;5000403;28;20232;-75
2023/04/10 00:34:23;;;;;;;10.40;6.30;;;;;;;7.87;77.64;95265.13;5015024;28;20234;-76
2023/04/10 00:36:48;;;;;;;10.13;6.00;;;;;;;7.80;75.84;95263.38;5001717;28;20230;-76
2023/04/10 00:39:13;;;;;;;9.67;6.03;;;;;;;7.71;75.78;95270.47;5031195;28;20272;-75
2023/04/10 00:41:39;;;;;;;9.90;5.77;;;;;;;7.70;75.79;95270.59;5018290;28;20240;-75
2023/04/10 00:44:05;;;;;;;10.17;5.83;;;;;;;7.64;76.49;95256.50;5024123;28;20623;-75
2023/04/10 00:46:30;;;;;;;12.13;6.13;;;;;;;7.63;75.59;95257.47;5016445;28;20678;-75
2023/04/10 00:48:56;;;;;;;9.40;6.10;;;;;;;7.65;75.80;95262.50;5012095;28;20279;-75
2023/04/10 00:51:22;;;;;;;10.03;6.10;;;;;;;7.79;76.32;95262.56;5017855;28;20238;-76
2023/04/10 00:53:50;;;;;;;10.10;6.27;;;;;;;7.82;77.60;95261.41;5017828;28;20650;-75
2023/04/10 00:56:17;;;;;;;12.60;6.73;;;;;;;7.80;80.96;95260.78;5006379;28;20299;-75
2023/04/10 00:58:43;;;;;;;13.10;6.90;;;;;;;7.81;81.91;95252.78;5021000;28;20229;-75
2023/04/10 01:01:08;;;;;;;12.07;7.17;;;;;;;7.88;82.66;95253.69;5013986;28;20230;-75
2023/04/10 01:03:34;;;;;;;11.80;6.80;;;;;;;7.97;83.47;95244.84;5018105;28;20222;-76
2023/04/10 01:06:25;;;;;;;10.93;6.97;;;;;;;7.91;84.40;95245.53;5027631;28;20229;-76
2023/04/10 01:09:13;;;;;;;11.53;7.07;;;;;;;7.81;87.29;95236.34;5025110;28;20232;-76
2023/04/10 01:11:44;;;;;;;10.60;6.67;;;;;;;8.02;87.88;95236.50;5031096;28;20237;-75
2023/04/10 01:14:26;;;;;;;13.43;7.90;;;;;;;7.97;88.33;95231.81;5017658;28;20229;-76
2023/04/10 01:17:07;;;;;;;12.83;7.73;;;;;;;7.64;90.10;95235.66;5033443;28;20233;-76
2023/04/10 01:20:11;;;;;;;13.27;7.97;;;;;;;7.66;91.38;95236.31;5017174;28;20388;-76
2023/04/10 01:23:14;;;;;;;12.80;7.90;;;;;;;7.76;90.46;95244.66;5036431;28;20226;-76
2023/04/10 01:26:07;;;;;;;12.20;7.73;;;;;;;7.65;91.57;95234.66;5034509;28;20233;-76
2023/04/10 01:28:56;;;;;;;13.17;7.20;;;;;;;7.76;90.86;95230.84;5033810;28;20233;-76
2023/04/10 01:31:43;;;;;;;12.43;7.33;;;;;;;7.90;90.54;95225.69;5019821;28;20234;-75
2023/04/10 01:34:20;;;;;;;11.53;6.97;;;;;;;7.90;90.06;95224.88;5035295;28;20337;-76
2023/04/10 01:36:52;;;;;;;11.07;6.93;;;;;;;7.85;90.88;95233.22;5003720;28;20253;-76
2023/04/10 01:39:18;;;;;;;11.53;6.73;;;;;;;7.80;90.41;95234.72;5042808;28;20234;-77
2023/04/10 01:41:44;;;;;;;10.87;6.87;;;;;;;7.63;90.80;95230.63;5010940;28;20261;-75
2023/04/10 01:44:10;;;;;;;11.27;6.83;;;;;;;7.70;89.77;95236.75;5016637;28;20243;-76
2023/04/10 01:46:36;;;;;;;11.93;6.77;;;;;;;7.53;89.79;95233.44;5011767;28;20226;-76
2023/04/10 01:49:02;;;;;;;12.10;7.43;;;;;;;7.55;89.88;95241.88;5017851;28;20218;-76
2023/04/10 01:51:29;;;;;;;10.20;6.63;;;;;;;7.60;90.47;95234.38;5011933;28;20230;-76
2023/04/10 01:53:55;;;;;;;11.97;7.10;;;;;;;7.60;89.67;95239.59;5017999;28;20245;-75
2023/04/10 01:56:20;;;;;;;12.10;6.70;;;;;;;7.46;88.87;95235.94;5016376;28;20233;-76
2023/04/10 01:58:46;;;;;;;12.33;7.07;;;;;;;7.56;89.06;95242.72;5005855;28;20240;-75
2023/04/10 02:01:18;;;;;;;10.70;6.60;;;;;;;7.57;89.67;95245.13;5006643;28;20237;-76
2023/04/10 02:03:44;;;;;;;13.13;7.27;;;;;;;7.66;89.89;95238.91;5007038;28;20268;-76
2023/04/10 02:06:40;;;;;;;12.17;7.07;;;;;;;7.71;89.24;95236.59;5019823;28;20230;-76
2023/04/10 02:09:20;;;;;;;13.10;7.80;;;;;;;7.65;90.22;95236.44;5032128;28;20242;-76
2023/04/10 02:12:00;;;;;;;12.77;7.80;;;;;;;7.59;91.09;95227.56;5018166;28;20240;-76
2023/04/10 02:14:28;;;;;;;14.30;8.33;;;;;;;7.64;91.36;95224.44;5035606;28;20242;-76
2023/04/10 02:16:54;;;;;;;13.43;7.83;;;;;;;7.67;90.92;95219.66;5018457;28;20237;-76
2023/04/10 02:19:20;;;;;;;13.40;7.90;;;;;;;7.68;90.88;95217.88;5000441;28;20988;-75
2023/04/10 02:21:46;;;;;;;13.93;8.00;;;;;;;7.69;92.02;95211.69;5013329;28;20272;-76
2023/04/10 02:24:11;;;;;;;14.33;8.47;;;;;;;7.73;91.41;95205.97;5009982;28;20246;-76
2023/04/10 02:26:46;;;;;;;14.03;8.10;;;;;;;7.71;90.74;95210.53;5009965;28;20237;-76
2023/04/10 02:29:12;;;;;;;13.70;7.70;;;;;;;7.77;90.18;95204.63;5020323;28;20237;-76
2023/04/10 02:31:37;;;;;;;13.00;7.27;;;;;;;7.68;90.33;95203.06;5008110;28;20234;-76
2023/04/10 02:34:03;;;;;;;13.63;7.80;;;;;;;7.65;92.31;95197.38;5032712;28;20777;-75
2023/04/10 02:36:28;;;;;;;12.87;7.90;;;;;;;7.55;92.78;95204.66;5032833;28;20234;-77
2023/04/10 02:38:54;;;;;;;12.37;7.53;;;;;;;7.60;93.28;95197.91;5006691;28;20234;-76
2023/04/10 02:41:19;;;;;;;14.80;7.53;;;;;;;7.58;92.50;95204.28;5000801;28;20296;-76
2023/04/10 02:43:45;;;;;;;13.30;8.07;;;;;;;7.51;95.36;95193.75;5035412;28;20226;-77
2023/04/10 02:46:11;;;;;;;12.60;7.83;;;;;;;7.54;93.28;95187.38;5023978;28;20233;-76
2023/04/10 02:48:36;;;;;;;14.20;7.47;;;;;;;7.50;93.76;95194.72;5032017;28;20232;-76
2023/04/10 02:51:02;;;;;;;14.40;8.10;;;;;;;7.56;91.37;95188.84;5038743;28;20257;-76
2023/04/10 02:53:28;;;;;;;13.10;7.33;;;;;;;7.53;91.51;95180.53;5034571;28;20287;-76
2023/04/10 02:55:54;;;;;;;14.37;7.90;;;;;;;7.53;90.50;95183.97;5016962;28;20265;-77
2023/04/10 02:58:20;;;;;;;13.73;7.60;;;;;;;7.51;91.75;95179.91;5012919;28;20233;-76
2023/04/10 03:00:50;;;;;;;12.67;7.60;;;;;;;7.54;90.53;95175.19;5015076;28;20295;-75
2023/04/10 03:03:17;;;;;;;13.50;7.43;;;;;;;7.45;90.92;95184.81;5022502;28;20834;-75
2023/04/10 03:05:42;;;;;;;14.63;7.87;;;;;;;7.45;90.32;95181.44;5025798;28;20269;-76
2023/04/10 03:08:08;;;;;;;14.80;8.37;;;;;;;7.51;90.22;95185.94;5010347;28;20237;-75
2023/04/10 03:10:33;;;;;;;14.97;8.07;;;;;;;7.38;90.99;95185.69;5021965;28;20242;-76
2023/04/10 03:12:59;;;;;;;13.23;7.90;;;;;;;7.31;91.47;95179.56;5016291;28;20233;-76
2023/04/10 03:15:25;;;;;;;13.23;7.53;;;;;;;7.34;90.93;95180.03;5007926;28;20238;-76
2023/04/10 03:17:51;;;;;;;15.90;7.87;;;;;;;7.24;92.37;95183.84;5013877;28;20851;-75
2023/04/10 03:20:16;;;;;;;13.60;8.03;;;;;;;7.05;92.38;95181.66;4999018;28;20242;-76
2023/04/10 03:22:42;;;;;;;14.37;7.87;;;;;;;7.07;92.94;95184.94;5029198;28;20635;-75
2023/04/10 03:25:08;;;;;;;13.73;7.83;;;;;;;6.98;93.83;95185.94;5015759;28;20819;-76
2023/04/10 03:27:33;;;;;;;12.27;7.50;;;;;;;6.87;94.20;95178.53;5032302;28;20222;-75
2023/04/10 03:30:00;;;;;;;12.90;7.63;;;;;;;6.89;93.85;95186.97;5002753;28;20707;-75
2023/04/10 03:32:27;;;;;;;12.83;7.30;;;;;;;6.88;92.64;95182.75;5021700;28;20245;-75
2023/04/10 03:34:52;;;;;;;14.07;7.57;;;;;;;6.81;92.82;95193.00;5016164;28;20251;-76
2023/04/10 03:37:18;;;;;;;15.13;8.03;;;;;;;6.75;93.72;95191.09;5004135;28;20376;-76
2023/04/10 03:39:44;;;;;;;15.73;8.57;;;;;;;6.62;94.80;95190.81;5023238;28;20620;-76
2023/04/10 03:42:10;;;;;;;16.77;8.73;;;;;;;6.63;95.33;95195.06;5033217;28;20237;-76
2023/04/10 03:44:36;;;;;;;22.03;10.47;;;;;;;6.68;96.77;95190.97;5012915;28;20743;-75
2023/04/10 03:47:02;;;;;;;18.73;10.20;;;;;;;6.67;95.89;95199.75;5041042;28;20236;-75
2023/04/10 03:49:27;;;;;;;20.67;10.87;;;;;;;6.65;97.06;95193.91;5018007;28;20238;-75
2023/04/10 03:51:53;;;;;;;18.23;10.30;;;;;;;6.58;97.40;95197.34;5007842;28;20668;-75
2023/04/10 03:54:18;;;;;;;18.43;10.17;;;;;;;6.60;97.60;95201.41;5000595;28;20248;-75
2023/04/10 03:56:44;;;;;;;18.80;10.20;;;;;;;6.62;97.80;95202.03;5033532;28;20229;-76
2023/04/10 03:59:09;;;;;;;16.73;9.80;;;;;;;6.59;98.53;95211.97;5002385;28;20234;-76
2023/04/10 04:01:35;;;;;;;18.80;10.37;;;;;;;6.64;97.93;95200.06;5002891;28;20771;-76
2023/04/10 04:04:01;;;;;;;19.00;10.50;;;;;;;6.53;98.82;95208.25;5016313;28;20287;-76
2023/04/10 04:06:27;;;;;;;16.37;9.30;;;;;;;6.60;97.88;95214.41;5023222;28;21052;-75
2023/04/10 04:08:53;;;;;;;20.07;10.60;;;;;;;6.60;98.21;95216.19;5009831;28;20230;-76
2023/04/10 04:11:18;;;;;;;21.83;11.70;;;;;;;6.81;97.13;95215.66;4998147;28;20612;-76
2023/04/10 04:13:44;;;;;;;23.87;11.77;;;;;;;6.75;97.27;95219.72;4995960;28;20321;-76
2023/04/10 04:16:10;;;;;;;21.77;11.33;;;;;;;6.77;97.11;95218.56;5013049;28;20704;-76
2023/04/10 04:18:35;;;;;;;19.77;10.87;;;;;;;6.74;97.91;95216.31;5039701;28;20218;-76
2023/04/10 04:21:01;;;;;;;21.73;11.20;;;;;;;6.77;98.01;95212.56;5019497;28;20238;-76
2023/04/10 04:23:26;;;;;;;22.10;11.10;;;;;;;6.66;98.30;95211.13;5011507;28;20230;-75
2023/04/10 04:25:53;;;;;;;20.33;10.80;;;;;;;6.78;97.56;95214.97;5022182;28;20236;-76
2023/04/10 04:28:18;;;;;;;20.77;10.83;;;;;;;6.76;98.09;95219.53;5010124;28;20241;-76
2023/04/10 04:30:44;;;;;;;21.57;10.90;;;;;;;6.85;97.84;95214.31;5010728;28;20226;-76
2023/04/10 04:33:10;;;;;;;19.53;10.33;;;;;;;7.07;96.37;95218.78;5013486;28;20230;-76
2023/04/10 04:35:35;;;;;;;19.40;10.00;;;;;;;7.21;96.28;95223.25;5033247;28;20722;-75
2023/04/10 04:38:01;;;;;;;21.67;10.67;;;;;;;7.25;95.61;95214.91;4999550;28;20237;-75
2023/04/10 04:40:26;;;;;;;18.90;10.23;;;;;;;7.30;95.21;95223.03;5007791;28;20747;-75
2023/04/10 04:42:52;;;;;;;19.33;9.70;;;;;;;7.33;95.66;95227.09;5002367;28;20242;-76
2023/04/10 04:45:17;;;;;;;23.17;11.00;;;;;;;7.37;95.10;95223.13;5012610;28;20234;-75
2023/04/10 04:47:42;;;;;;;20.30;10.57;;;;;;;7.40;95.05;95233.22;5016632;28;20230;-76
2023/04/10 04:50:08;;;;;;;21.63;11.17;;;;;;;7.40;94.62;95228.00;5005550;28;20245;-75
2023/04/10 04:52:34;;;;;;;27.30;13.63;;;;;;;7.43;93.93;95225.84;5005402;28;20272;-75
2023/04/10 04:55:00;;;;;;;23.90;13.40;;;;;;;7.57;92.68;95229.50;5026976;28;20288;-76
2023/04/10 04:57:25;;;;;;;23.33;13.10;;;;;;;7.66;91.76;95228.47;5022803;28;20238;-76
2023/04/10 04:59:51;;;;;;;22.77;12.13;;;;;;;7.64;91.47;95235.66;5005210;28;21020;-80
2023/04/10 05:02:17;;;;;;;21.67;12.00;;;;;;;7.73;91.23;95245.03;5011354;28;20296;-78
2023/04/10 05:04:43;;;;;;;22.30;11.60;;;;;;;7.98;90.99;95238.63;5017333;28;20324;-76
2023/04/10 05:07:09;;;;;;;18.50;10.90;;;;;;;7.96;90.03;95248.44;5011035;28;20681;-78
2023/04/10 05:09:34;;;;;;;20.57;10.23;;;;;;;8.35;88.35;95239.66;5004223;28;20233;-80
2023/04/10 05:12:01;;;;;;;19.83;10.50;;;;;;;8.81;86.28;95243.75;5005669;28;20628;-79
2023/04/10 05:14:26;;;;;;;19.70;10.30;;;;;;;9.52;82.77;95242.97;5028519;28;20266;-78
2023/04/10 05:16:52;;;;;;;22.00;10.53;;;;;;;10.06;80.06;95238.06;5013169;28;20252;-79
2023/04/10 05:19:17;;;;;;;17.87;10.43;;;;;;;10.41;78.28;95241.59;5021823;28;20230;-79
2023/04/10 05:21:46;;;;;;;19.83;10.20;;;;;;;10.35;78.20;95242.34;5010891;28;20706;-78
2023/04/10 05:24:11;;;;;;;17.67;8.90;;;;;;;10.78;74.49;95239.44;5021492;28;20719;-79
2023/04/10 05:26:37;;;;;;;15.90;8.97;;;;;;;11.23;72.79;95248.53;4994805;28;20233;-79
2023/04/10 05:29:03;;;;;;;17.30;9.00;;;;;;;10.73;74.46;95241.00;5026356;28;20210;-79
2023/04/10 05:31:28;;;;;;;17.57;8.77;;;;;;;10.33;76.40;95249.59;5005699;28;20233;-79
2023/04/10 05:33:54;;;;;;;15.27;8.70;;;;;;;10.40;75.63;95240.78;5030693;28;20228;-77
2023/04/10 05:36:19;;;;;;;14.87;8.40;;;;;;;10.16;74.86;95241.22;5031410;28;20234;-79
2023/04/10 05:38:45;;;;;;;15.77;8.43;;;;;;;9.71;78.32;95241.56;5029035;28;20225;-78
2023/04/10 05:41:10;;;;;;;16.33;8.80;;;;;;;9.74;79.53;95236.78;5031046;28;20693;-77
2023/04/10 05:43:35;;;;;;;16.23;8.80;;;;;;;10.19;76.44;95248.69;5011667;28;20673;-77
2023/04/10 05:46:01;;;;;;;18.57;8.87;;;;;;;10.40;75.67;95246.03;5015047;28;20239;-77
2023/04/10 05:48:27;;;;;;;17.93;8.53;;;;;;;10.15;73.85;95245.63;5018253;28;20222;-77
2023/04/10 05:50:53;;;;;;;15.00;8.77;;;;;;;9.90;76.52;95249.59;5026994;28;20222;-77
2023/04/10 05:53:19;;;;;;;21.07;9.57;;;;;;;9.81;77.13;95252.53;5030341;28;20852;-77
2023/04/10 05:55:44;;;;;;;19.37;9.90;;;;;;;9.79;78.05;95249.28;5013769;28;20749;-76
2023/04/10 05:58:10;;;;;;;19.00;9.43;;;;;;;9.97;78.65;95250.47;5012403;28;20676;-77
2023/04/10 06:00:36;;;;;;;18.03;9.63;;;;;;;10.17;75.53;95249.88;5005493;28;20822;-77
2023/04/10 06:03:02;;;;;;;19.03;10.27;;;;;;;10.15;78.08;95252.66;5009904;28;20791;-76
2023/04/10 06:05:28;;;;;;;17.33;10.07;;;;;;;10.25;78.63;95254.94;5013958;28;20234;-76
2023/04/10 06:07:54;;;;;;;16.20;9.27;;;;;;;10.23;75.85;95254.34;5015933;28;20217;-77
2023/04/10 06:10:20;;;;;;;15.33;8.90;;;;;;;10.06;75.47;95259.81;5008805;28;20229;-77
2023/04/10 06:12:45;;;;;;;16.37;9.10;;;;;;;9.72;76.23;95261.50;5029387;28;20244;-77
2023/04/10 06:15:14;;;;;;;17.13;9.30;;;;;;;9.84;76.23;95252.94;5024754;28;20856;-77
2023/04/10 06:17:45;;;;;;;15.50;9.53;;;;;;;9.87;77.96;95249.16;5019796;28;20404;-77
2023/04/10 06:20:11;;;;;;;16.93;10.17;;;;;;;9.98;77.36;95241.63;5017099;28;20225;-77
2023/04/10 06:22:37;;;;;;;17.87;10.20;;;;;;;9.90;78.18;95248.78;5031814;28;20246;-78
2023/04/10 06:25:04;;;;;;;20.77;10.97;;;;;;;9.81;76.72;95250.72;5017743;28;20229;-77
2023/04/10 06:27:30;;;;;;;19.50;11.73;;;;;;;9.86;76.48;95247.56;5008931;28;20237;-78
2023/04/10 06:29:55;;;;;;;18.17;10.30;;;;;;;9.99;75.91;95247.66;4996782;28;20395;-76
2023/04/10 06:32:21;;;;;;;18.73;11.00;;;;;;;10.14;78.13;95240.59;5018059;28;20291;-77
2023/04/10 06:34:47;;;;;;;21.30;10.30;;;;;;;10.21;75.81;95236.22;5033952;28;20226;-77
2023/04/10 06:37:12;;;;;;;21.63;10.63;;;;;;;10.13;74.04;95238.97;5000577;28;20722;-79
2023/04/10 06:39:38;;;;;;;17.73;9.90;;;;;;;10.04;74.57;95255.75;5041961;28;20742;-78
2023/04/10 06:42:03;;;;;;;18.10;10.23;;;;;;;9.96;74.67;95248.84;5008026;28;20238;-76
2023/04/10 06:44:29;;;;;;;20.13;10.47;;;;;;;9.99;74.49;95252.88;4997374;28;20623;-76
2023/04/10 06:46:55;;;;;;;18.33;9.97;;;;;;;9.99;75.56;95255.50;5008383;28;20254;-74
2023/04/10 06:49:20;;;;;;;19.63;10.60;;;;;;;9.98;75.38;95257.31;5013526;28;20320;-76
2023/04/10 06:51:47;;;;;;;22.40;10.30;;;;;;;9.87;76.08;95252.59;5025149;28;20637;-76
2023/04/10 06:54:13;;;;;;;17.97;10.20;;;;;;;9.80;74.23;95253.50;5018865;28;20237;-77
2023/04/10 06:56:38;;;;;;;18.33;10.33;;;;;;;9.67;75.03;95263.84;5034456;28;20677;-76
2023/04/10 06:59:04;;;;;;;17.47;10.27;;;;;;;9.75;75.14;95261.91;5008647;28;20217;-75
2023/04/10 07:01:29;;;;;;;19.67;10.40;;;;;;;9.75;76.71;95258.47;5017540;28;20322;-75
2023/04/10 07:03:55;;;;;;;19.77;11.03;;;;;;;9.85;75.83;95257.19;5030902;28;20642;-77
2023/04/10 07:06:21;;;;;;;18.37;9.53;;;;;;;9.70;74.92;95255.63;5030793;28;20233;-75
2023/04/10 07:08:49;;;;;;;16.50;10.27;;;;;;;9.84;74.67;95257.38;5006269;28;20229;-76
2023/04/10 07:11:15;;;;;;;18.27;10.20;;;;;;;9.96;73.43;95267.16;5049385;28;20290;-75
2023/04/10 07:13:40;;;;;;;21.50;10.77;;;;;;;9.80;73.12;95264.78;5034876;28;20230;-75
2023/04/10 07:16:09;;;;;;;21.00;11.20;;;;;;;9.87;73.83;95262.22;5020994;28;20253;-76
2023/04/10 07:18:37;;;;;;;19.30;10.80;;;;;;;9.94;74.00;95260.47;5018660;28;20222;-75
2023/04/10 07:21:11;;;;;;;20.57;11.60;;;;;;;9.74;74.62;95259.50;5019949;28;20222;-76
2023/04/10 07:23:37;;;;;;;21.53;11.63;;;;;;;10.04;74.49;95263.59;5024600;28;20304;-76
2023/04/10 07:26:02;;;;;;;20.30;10.67;;;;;;;9.98;73.66;95262.53;5018549;28;20734;-76
2023/04/10 07:28:28;;;;;;;21.30;11.30;;;;;;;9.65;73.62;95265.84;5002367;28;20623;-76
2023/04/10 07:30:53;;;;;;;21.33;11.27;;;;;;;9.84;73.92;95265.22;5042091;28;20625;-76
2023/04/10 07:33:19;;;;;;;21.50;10.93;;;;;;;10.09;73.65;95266.47;5014006;28;20257;-75
2023/04/10 07:35:44;;;;;;;32.20;11.87;;;;;;;10.20;73.56;95265.97;5032278;28;20306;-76
2023/04/10 07:38:11;;;;;;;21.37;11.27;;;;;;;10.68;71.70;95259.91;5032488;28;20238;-76
2023/04/10 07:40:36;;;;;;;19.87;11.10;;;;;;;10.86;71.17;95269.09;5039039;28;20233;-76
2023/04/10 07:43:02;;;;;;;18.37;11.07;;;;;;;10.42;71.34;95266.75;5015176;28;20225;-76
2023/04/10 07:45:27;;;;;;;22.07;12.20;;;;;;;10.11;71.85;95269.69;5020207;28;20269;-76
2023/04/10 07:47:53;;;;;;;21.83;12.03;;;;;;;10.60;71.28;95267.91;5015041;28;20259;-77
2023/04/10 07:50:18;;;;;;;25.13;12.37;;;;;;;10.72;70.50;95268.19;5015191;28;20238;-76
2023/04/10 07:52:44;;;;;;;21.10;11.93;;;;;;;11.11;69.90;95265.78;5032369;28;20614;-76
2023/04/10 07:55:10;;;;;;;21.93;11.50;;;;;;;11.07;69.79;95264.56;5030509;28;20234;-76
2023/04/10 07:57:35;;;;;;;25.20;12.63;;;;;;;10.76;69.19;95266.81;5019515;28;20282;-76
2023/04/10 08:00:01;;;;;;;26.10;12.83;;;;;;;10.80;69.82;95262.78;5006408;28;20276;-75
2023/04/10 08:02:27;;;;;;;24.67;12.63;;;;;;;10.69;70.98;95263.34;5014662;28;20250;-76
2023/04/10 08:04:52;;;;;;;21.40;12.50;;;;;;;10.58;71.25;95263.88;5013827;28;20238;-76
2023/04/10 08:07:20;;;;;;;20.67;11.77;;;;;;;10.99;71.37;95259.47;5018503;28;20289;-75
2023/04/10 08:09:45;;;;;;;22.47;12.27;;;;;;;11.01;69.90;95260.09;5007349;28;20265;-75
2023/04/10 08:12:11;;;;;;;22.87;12.40;;;;;;;10.72;70.22;95258.50;5017116;28;20236;-76
2023/04/10 08:14:36;;;;;;;20.30;11.80;;;;;;;10.81;72.39;95252.16;5018664;28;20226;-76
2023/04/10 08:17:02;;;;;;;19.77;11.93;;;;;;;10.87;71.11;95252.38;5011479;28;20290;-76
2023/04/10 08:19:27;;;;;;;22.73;12.07;;;;;;;10.97;69.40;95258.88;5008465;28;20322;-76
2023/04/10 08:21:53;;;;;;;20.17;11.57;;;;;;;10.87;70.66;95260.25;5018314;28;20241;-76
2023/04/10 08:24:20;;;;;;;22.40;11.67;;;;;;;11.24;70.58;95254.56;5030226;28;20250;-76
2023/04/10 08:26:45;;;;;;;21.27;12.23;;;;;;;11.26;69.83;95257.81;5037192;28;20225;-76
2023/04/10 08:29:11;;;;;;;20.03;11.60;;;;;;;11.14;68.32;95259.38;5000636;28;20759;-77
2023/04/10 08:31:36;;;;;;;21.20;11.97;;;;;;;10.98;70.69;95260.50;4990749;28;20234;-75
2023/04/10 08:34:03;;;;;;;21.17;11.20;;;;;;;10.98;69.49;95255.25;5023993;28;20241;-75
2023/04/10 08:36:30;;;;;;;20.57;10.97;;;;;;;11.14;69.94;95259.38;5019700;28;20321;-76
2023/04/10 08:38:55;;;;;;;18.30;10.70;;;;;;;11.21;70.79;95261.00;5020549;28;20299;-75
2023/04/10 08:41:21;;;;;;;19.73;11.40;;;;;;;11.10;69.93;95258.13;5015873;28;20943;-76
2023/04/10 08:43:48;;;;;;;21.60;11.77;;;;;;;11.33;69.89;95258.63;5032316;28;20283;-76
2023/04/10 08:46:14;;;;;;;16.63;10.47;;;;;;;10.80;68.14;95261.00;5027988;28;20323;-75
2023/04/10 08:48:53;;;;;;;19.07;11.37;;;;;;;11.34;69.18;95255.03;5010957;28;20234;-77
2023/04/10 08:51:19;;;;;;;23.07;11.63;;;;;;;11.55;67.89;95252.28;5023017;28;20249;-75
2023/04/10 08:53:45;;;;;;;18.07;10.57;;;;;;;11.43;67.92;95253.84;5023198;28;20245;-76
2023/04/10 08:56:13;;;;;;;19.70;11.00;;;;;;;11.47;67.67;95253.25;5022114;28;20230;-76
2023/04/10 08:58:40;;;;;;;19.30;10.27;;;;;;;11.78;67.70;95252.75;4993042;28;20712;-76
2023/04/10 09:01:06;;;;;;;17.80;10.60;;;;;;;11.67;66.59;95249.88;4994003;28;20241;-75
2023/04/10 09:03:31;;;;;;;16.83;9.77;;;;;;;11.50;64.74;95241.56;5016971;28;20233;-75
2023/04/10 09:06:00;;;;;;;15.27;9.37;;;;;;;11.36;64.40;95245.16;5016742;28;20626;-76
2023/04/10 09:08:26;;;;;;;13.47;9.20;;;;;;;11.51;62.96;95243.19;5028442;28;20260;-76
2023/04/10 09:10:51;;;;;;;14.87;9.13;;;;;;;11.62;62.99;95247.03;5007472;28;20236;-76
2023/04/10 09:13:37;;;;;;;12.97;9.33;;;;;;;11.64;63.00;95234.53;5021080;28;20233;-76
2023/04/10 09:16:03;;;;;;;23.50;12.60;;;;;;;11.70;62.96;95231.19;5030557;28;20234;-76
2023/04/10 09:18:49;;;;;;;18.13;9.83;;;;;;;11.67;63.77;95231.53;5016006;28;20735;-75
2023/04/10 09:21:18;;;;;;;17.10;9.40;;;;;;;11.45;64.71;95233.50;5029505;28;20244;-75
2023/04/10 09:23:44;;;;;;;15.77;9.70;;;;;;;11.89;64.34;95230.41;5048360;28;20238;-75
2023/04/10 09:26:27;;;;;;;18.13;10.13;;;;;;;11.90;63.57;95234.63;5006295;28;20738;-75
2023/04/10 09:28:58;;;;;;;15.60;9.90;;;;;;;11.67;63.59;95232.34;5002732;28;20768;-75
2023/04/10 09:31:28;;;;;;;15.53;9.63;;;;;;;11.76;63.48;95228.56;5030442;28;20232;-75
2023/04/10 09:34:10;;;;;;;15.40;9.50;;;;;;;10.95;64.90;95233.88;5023298;28;20725;-76
2023/04/10 09:36:36;;;;;;;16.87;9.77;;;;;;;11.06;65.46;95234.13;5018464;28;20245;-75
2023/04/10 09:39:03;;;;;;;22.30;10.43;;;;;;;11.29;65.10;95225.97;5016077;28;20655;-76
2023/04/10 09:41:28;;;;;;;19.30;9.97;;;;;;;11.72;65.63;95229.97;5036215;28;20230;-76
2023/04/10 09:44:08;;;;;;;14.10;9.47;;;;;;;11.40;63.25;95223.59;5016318;28;20592;-76
2023/04/10 09:46:34;;;;;;;15.87;9.27;;;;;;;11.46;63.85;95220.19;5026205;28;20249;-76
2023/04/10 09:49:03;;;;;;;15.37;9.07;;;;;;;11.81;63.56;95225.34;5019228;28;20222;-77
2023/04/10 09:51:33;;;;;;;16.13;9.87;;;;;;;11.79;62.87;95224.72;5008128;28;20233;-76
2023/04/10 09:53:59;;;;;;;17.23;9.37;;;;;;;11.53;61.77;95222.84;5032932;28;20352;-75
2023/04/10 09:56:26;;;;;;;15.33;9.33;;;;;;;11.33;62.70;95227.19;5004649;28;20320;-74
2023/04/10 09:58:52;;;;;;;15.10;8.70;;;;;;;11.68;60.84;95223.50;5011726;28;20624;-75
2023/04/10 10:01:19;;;;;;;15.27;8.17;;;;;;;12.14;59.39;95219.13;5022765;28;21100;-75
2023/04/10 10:03:44;;;;;;;13.70;8.73;;;;;;;12.35;61.12;95222.53;5016894;28;20245;-75
2023/04/10 10:06:10;;;;;;;14.30;8.50;;;;;;;12.46;59.97;95214.88;5026541;28;20230;-76
2023/04/10 10:08:36;;;;;;;12.67;8.63;;;;;;;12.83;59.67;95221.25;5025868;28;21029;-76
2023/04/10 10:11:01;;;;;;;13.13;8.07;;;;;;;12.89;58.18;95214.38;5008987;28;20230;-76
2023/04/10 10:13:28;;;;;;;14.43;8.70;;;;;;;12.68;58.08;95207.56;5016640;28;20230;-76
2023/04/10 10:15:59;;;;;;;12.77;8.80;;;;;;;12.46;58.64;95206.19;5012321;28;20663;-76
2023/04/10 10:18:54;;;;;;;14.13;8.67;;;;;;;12.65;59.70;95205.34;5012066;28;20238;-75
2023/04/10 10:21:21;;;;;;;14.27;8.97;;;;;;;12.45;59.56;95196.69;5035081;28;20229;-75
2023/04/10 10:23:52;;;;;;;15.63;9.03;;;;;;;12.46;59.53;95199.13;5010527;28;20283;-75
2023/04/10 10:26:18;;;;;;;14.17;9.60;;;;;;;12.04;60.68;95187.22;5025942;28;20312;-75
2023/04/10 10:28:43;;;;;;;14.60;8.90;;;;;;;12.08;60.53;95191.06;5010324;28;20238;-76
2023/04/10 10:31:08;;;;;;;15.97;8.87;;;;;;;11.96;60.00;95190.06;5015551;28;20232;-77
2023/04/10 10:33:37;;;;;;;13.50;8.97;;;;;;;11.98;60.14;95185.41;5019696;28;20295;-76
2023/04/10 10:36:06;;;;;;;16.33;9.40;;;;;;;12.53;58.72;95183.34;5016651;28;20230;-75
2023/04/10 10:38:32;;;;;;;13.90;9.00;;;;;;;12.43;59.32;95188.22;5018507;28;20230;-76
2023/04/10 10:41:07;;;;;;;13.43;9.40;;;;;;;12.25;59.93;95178.34;5008436;28;20702;-76
2023/04/10 10:44:40;;;;;;;14.67;9.20;;;;;;;12.43;60.33;95185.59;5006151;28;20654;-76
2023/04/10 10:47:27;;;;;;;16.97;9.67;;;;;;;12.25;60.21;95174.91;4986905;28;20242;-76
2023/04/10 10:49:56;;;;;;;15.13;9.40;;;;;;;12.46;60.17;95180.75;5029070;28;20257;-76
2023/04/10 10:52:40;;;;;;;15.10;9.20;;;;;;;12.47;60.16;95173.66;5033947;28;20229;-76
2023/04/10 10:55:35;;;;;;;13.43;8.87;;;;;;;12.13;59.62;95170.25;5033404;28;20237;-76
2023/04/10 10:58:05;;;;;;;13.93;8.40;;;;;;;12.06;60.00;95166.06;5013749;28;20273;-78
2023/04/10 11:00:49;;;;;;;15.67;9.17;;;;;;;12.72;59.73;95162.31;5016822;28;20265;-76
2023/04/10 11:03:15;;;;;;;12.03;7.97;;;;;;;12.56;59.43;95159.31;5029874;28;20252;-76
2023/04/10 11:05:57;;;;;;;13.80;8.20;;;;;;;12.92;57.75;95156.97;5038070;28;20242;-77
2023/04/10 11:08:34;;;;;;;13.03;8.67;;;;;;;13.64;57.92;95146.13;5024769;28;20272;-76
2023/04/10 11:11:04;;;;;;;14.60;8.60;;;;;;;13.74;54.47;95145.66;5034738;28;20233;-76
2023/04/10 11:13:33;;;;;;;13.83;8.20;;;;;;;13.54;53.26;95145.00;5024629;28;20234;-75
2023/04/10 11:16:00;;;;;;;13.33;7.97;;;;;;;13.47;54.46;95140.56;5037078;28;20303;-76
2023/04/10 11:18:44;;;;;;;14.47;8.70;;;;;;;13.37;53.32;95128.91;5020868;28;20238;-76
2023/04/10 11:21:10;;;;;;;13.57;9.23;;;;;;;13.62;57.01;95142.09;5036854;28;20249;-76
2023/04/10 11:23:56;;;;;;;13.90;8.73;;;;;;;12.72;58.96;95136.06;5015778;28;20230;-77
2023/04/10 11:26:34;;;;;;;12.37;8.37;;;;;;;12.34;59.11;95131.69;5029373;28;20225;-77
2023/04/10 11:29:13;;;;;;;14.40;8.70;;;;;;;12.50;59.45;95134.69;5030300;28;20675;-76
2023/04/10 11:31:38;;;;;;;12.80;8.13;;;;;;;12.07;58.82;95138.78;5031939;28;20237;-76